createdAt,value
2022-11-04T00:02:01.730Z,2.92
2022-11-04T00:04:30.680Z,1.70
2022-11-04T00:06:59.467Z,2.35
2022-11-04T00:09:29.024Z,3.78
2022-11-04T00:12:15.059Z,1.90
2022-11-04T00:14:45.093Z,2.25
2022-11-04T00:17:25.236Z,1.60
2022-11-04T00:20:11.642Z,4.95
2022-11-04T00:22:58.263Z,2.10
2022-11-04T00:25:44.604Z,2.40
2022-11-04T00:28:31.830Z,2.05
2022-11-04T00:31:24.077Z,3.10
2022-11-04T00:33:52.339Z,3.03
2022-11-04T00:36:21.074Z,2.30
2022-11-04T00:38:49.426Z,1.75
2022-11-04T00:41:27.432Z,2.05
2022-11-04T00:43:56.791Z,2.20
2022-11-04T00:46:26.767Z,2.13
2022-11-04T00:48:55.163Z,3.25
2022-11-04T00:51:23.517Z,2.70
2022-11-04T00:53:52.310Z,2.65
2022-11-04T00:56:20.777Z,2.58
2022-11-04T00:58:50.722Z,4.13
2022-11-04T01:01:20.233Z,3.42
2022-11-04T01:03:50.594Z,3.75
2022-11-04T01:06:19.191Z,4.05
2022-11-04T01:08:47.583Z,5.30
2022-11-04T01:11:16.335Z,4.75
2022-11-04T01:13:44.717Z,4.93
2022-11-04T01:16:13.809Z,5.60
2022-11-04T01:18:42.215Z,6.57
2022-11-04T01:21:13.637Z,5.80
2022-11-04T01:23:42.473Z,6.05
2022-11-04T01:26:11.372Z,5.85
2022-11-04T01:28:39.736Z,6.13
2022-11-04T01:31:08.496Z,9.13
2022-11-04T01:33:37.138Z,9.23
2022-11-04T01:36:05.819Z,6.30
2022-11-04T01:38:35.728Z,8.10
2022-11-04T01:41:04.287Z,10.15
2022-11-04T01:43:45.219Z,8.85
2022-11-04T01:46:15.066Z,6.15
2022-11-04T01:48:43.414Z,9.52
2022-11-04T01:51:11.732Z,5.80
2022-11-04T01:53:43.160Z,7.60
2022-11-04T01:56:13.222Z,5.30
2022-11-04T01:58:43.119Z,5.22
2022-11-04T02:01:12.530Z,5.20
2022-11-04T02:03:42.739Z,9.30
2022-11-04T02:06:11.297Z,8.02
2022-11-04T02:08:41.426Z,6.47
2022-11-04T02:11:09.750Z,9.95
2022-11-04T02:13:37.749Z,6.03
2022-11-04T02:16:12.552Z,8.68
2022-11-04T02:18:50.162Z,10.40
2022-11-04T02:21:37.436Z,7.47
2022-11-04T02:24:33.367Z,5.00
2022-11-04T02:27:12.258Z,5.40
2022-11-04T02:29:56.207Z,5.10
2022-11-04T02:32:29.172Z,8.25
2022-11-04T02:35:03.434Z,4.97
2022-11-04T02:37:36.919Z,5.75
2022-11-04T02:40:10.215Z,5.72
2022-11-04T02:42:41.369Z,7.40
2022-11-04T02:45:16.036Z,5.28
2022-11-04T02:47:45.894Z,6.55
2022-11-04T02:50:16.312Z,4.82
2022-11-04T02:52:50.356Z,4.15
2022-11-04T02:55:22.057Z,4.57
2022-11-04T02:57:52.453Z,4.50
2022-11-04T03:00:22.527Z,5.82
2022-11-04T03:02:53.269Z,5.03
2022-11-04T03:05:23.622Z,3.67
2022-11-04T03:07:52.848Z,6.40
2022-11-04T03:10:24.063Z,3.17
2022-11-04T03:12:55.561Z,5.47
2022-11-04T03:15:28.306Z,8.30
2022-11-04T03:18:00.183Z,5.40
2022-11-04T03:20:29.296Z,6.80
2022-11-04T03:23:00.117Z,6.82
2022-11-04T03:25:30.793Z,4.43
2022-11-04T03:28:02.868Z,9.20
2022-11-04T03:30:35.748Z,6.35
2022-11-04T03:33:07.857Z,6.63
2022-11-04T03:35:36.427Z,4.80
2022-11-04T03:38:04.845Z,4.70
2022-11-04T03:40:33.280Z,2.58
2022-11-04T03:43:02.841Z,8.32
2022-11-04T03:45:31.263Z,4.13
2022-11-04T03:48:01.096Z,5.25
2022-11-04T03:50:30.845Z,3.53
2022-11-04T03:52:59.839Z,4.10
2022-11-04T03:55:32.787Z,4.78
2022-11-04T03:58:05.931Z,5.20
2022-11-04T04:00:37.659Z,5.03
2022-11-04T04:03:09.865Z,4.60
2022-11-04T04:05:40.669Z,4.57
2022-11-04T04:08:21.727Z,3.90
2022-11-04T04:10:54.344Z,4.75
2022-11-04T04:13:26.946Z,5.75
2022-11-04T04:15:57.087Z,7.45
2022-11-04T04:18:29.438Z,6.93
2022-11-04T04:20:59.789Z,4.55
2022-11-04T04:23:47.595Z,9.50
2022-11-04T04:26:34.985Z,5.45
2022-11-04T04:29:05.816Z,6.18
2022-11-04T04:31:50.704Z,3.75
2022-11-04T04:34:21.726Z,6.00
2022-11-04T04:36:53.728Z,6.00
2022-11-04T04:39:42.069Z,10.30
2022-11-04T04:42:28.721Z,4.90
2022-11-04T04:45:06.702Z,9.90
2022-11-04T04:47:43.309Z,5.55
2022-11-04T04:50:15.171Z,7.13
2022-11-04T04:52:44.973Z,4.72
2022-11-04T04:55:14.014Z,10.23
2022-11-04T04:57:42.359Z,4.60
2022-11-04T05:00:11.944Z,5.68
2022-11-04T05:02:40.712Z,9.38
2022-11-04T05:05:09.714Z,6.50
2022-11-04T05:07:39.450Z,6.43
2022-11-04T05:10:08.494Z,5.78
2022-11-04T05:12:54.300Z,9.90
2022-11-04T05:15:22.764Z,6.85
2022-11-04T05:17:55.131Z,6.63
2022-11-04T05:20:23.509Z,7.43
2022-11-04T05:22:53.523Z,10.40
2022-11-04T05:25:21.867Z,6.00
2022-11-04T05:27:50.437Z,7.70
2022-11-04T05:30:18.854Z,8.40
2022-11-04T05:32:47.250Z,5.82
2022-11-04T05:35:15.625Z,7.90
2022-11-04T05:37:43.953Z,7.50
2022-11-04T05:40:14.327Z,7.60
2022-11-04T05:42:42.699Z,8.27
2022-11-04T05:45:11.406Z,5.53
2022-11-04T05:47:39.735Z,6.63
2022-11-04T05:50:08.510Z,10.18
2022-11-04T05:52:36.869Z,6.05
2022-11-04T05:55:05.314Z,4.40
2022-11-04T05:57:35.750Z,6.78
2022-11-04T06:00:04.998Z,4.32
2022-11-04T06:02:33.502Z,6.03
2022-11-04T06:05:01.943Z,5.07
2022-11-04T06:07:30.288Z,4.78
2022-11-04T06:09:58.613Z,5.72
2022-11-04T06:12:26.948Z,8.68
2022-11-04T06:14:56.796Z,6.13
2022-11-04T06:17:25.233Z,5.38
2022-11-04T06:19:53.567Z,6.25
2022-11-04T06:22:22.127Z,4.93
2022-11-04T06:24:50.523Z,3.63
2022-11-04T06:27:19.059Z,7.38
2022-11-04T06:29:47.449Z,6.75
2022-11-04T06:32:18.223Z,6.03
2022-11-04T06:34:46.565Z,6.57
2022-11-04T06:37:14.891Z,5.60
2022-11-04T06:39:43.420Z,7.82
2022-11-04T06:42:11.773Z,11.63
2022-11-04T06:44:40.110Z,6.63
2022-11-04T06:47:08.446Z,8.75
2022-11-04T06:49:38.311Z,4.50
2022-11-04T06:52:06.860Z,8.18
2022-11-04T06:54:35.359Z,5.60
2022-11-04T06:57:04.088Z,8.45
2022-11-04T06:59:32.422Z,8.98
2022-11-04T07:02:00.892Z,5.80
2022-11-04T07:04:29.307Z,8.05
2022-11-04T07:06:59.043Z,7.63
2022-11-04T07:09:27.346Z,5.63
2022-11-04T07:11:55.698Z,6.90
2022-11-04T07:14:24.037Z,8.18
2022-11-04T07:16:52.369Z,9.32
2022-11-04T07:19:20.700Z,6.88
2022-11-04T07:21:49.484Z,8.02
2022-11-04T07:24:19.185Z,4.30
2022-11-04T07:26:47.596Z,6.50
2022-11-04T07:29:15.985Z,7.32
2022-11-04T07:31:45.313Z,8.63
2022-11-04T07:34:13.811Z,4.85
2022-11-04T07:36:42.169Z,4.63
2022-11-04T07:39:10.562Z,10.57
2022-11-04T07:41:40.250Z,5.95
2022-11-04T07:44:08.617Z,12.13
2022-11-04T07:46:37.235Z,6.07
2022-11-04T07:49:05.635Z,8.25
2022-11-04T07:51:34.063Z,10.63
2022-11-04T07:54:02.465Z,8.00
2022-11-04T07:56:30.825Z,5.68
2022-11-04T07:59:00.523Z,4.75
2022-11-04T08:01:28.951Z,7.35
2022-11-04T08:03:57.348Z,7.13
2022-11-04T08:06:26.159Z,6.07
2022-11-04T08:08:54.689Z,8.68
2022-11-04T08:11:25.175Z,6.85
2022-11-04T08:13:53.567Z,6.35
2022-11-04T08:16:23.872Z,5.97
2022-11-04T08:18:53.385Z,4.97
2022-11-04T08:21:22.145Z,9.18
2022-11-04T08:23:51.639Z,4.75
2022-11-04T08:26:20.627Z,6.30
2022-11-04T08:28:49.224Z,6.45
2022-11-04T08:31:18.680Z,4.68
2022-11-04T08:33:48.864Z,4.25
2022-11-04T08:36:19.198Z,7.30
2022-11-04T08:38:48.181Z,6.75
2022-11-04T08:41:17.532Z,7.40
2022-11-04T08:43:46.500Z,10.25
2022-11-04T08:46:15.372Z,13.65
2022-11-04T08:48:44.193Z,6.50
2022-11-04T08:51:16.272Z,4.65
2022-11-04T08:53:44.955Z,7.03
2022-11-04T08:56:14.248Z,7.57
2022-11-04T08:58:42.859Z,4.72
2022-11-04T09:01:12.804Z,13.35
2022-11-04T09:03:42.105Z,5.03
2022-11-04T09:06:11.585Z,6.97
2022-11-04T09:08:43.313Z,7.93
2022-11-04T09:11:12.871Z,6.70
2022-11-04T09:13:41.624Z,6.60
2022-11-04T09:16:10.647Z,6.57
2022-11-04T09:18:39.091Z,3.72
2022-11-04T09:21:08.341Z,5.95
2022-11-04T09:23:36.795Z,9.88
2022-11-04T09:26:08.004Z,6.65
2022-11-04T09:28:36.838Z,8.45
2022-11-04T09:31:08.810Z,7.80
2022-11-04T09:33:37.420Z,6.65
2022-11-04T09:36:06.130Z,5.78
2022-11-04T09:38:34.705Z,4.85
2022-11-04T09:41:03.043Z,8.07
2022-11-04T09:43:39.483Z,7.97
2022-11-04T09:46:08.118Z,8.10
2022-11-04T09:48:39.221Z,7.75
2022-11-04T09:51:20.873Z,7.38
2022-11-04T09:53:59.160Z,5.22
2022-11-04T09:56:29.882Z,5.30
2022-11-04T09:58:59.617Z,8.23
2022-11-04T10:01:30.448Z,2.55
2022-11-04T10:04:14.035Z,3.22
2022-11-04T10:06:46.963Z,5.78
2022-11-04T10:09:22.689Z,5.75
2022-11-04T10:11:57.095Z,4.60
2022-11-04T10:14:38.352Z,4.82
2022-11-04T10:17:12.505Z,5.70
2022-11-04T10:19:45.710Z,7.13
2022-11-04T10:22:18.446Z,5.28
2022-11-04T10:24:51.865Z,6.00
2022-11-04T10:27:23.340Z,5.65
2022-11-04T10:29:56.188Z,6.82
2022-11-04T10:32:28.291Z,4.28
2022-11-04T10:34:59.124Z,5.07
2022-11-04T10:37:28.362Z,2.75
2022-11-04T10:40:04.407Z,5.70
2022-11-04T10:42:34.145Z,6.05
2022-11-04T10:45:03.862Z,6.95
2022-11-04T10:47:35.763Z,5.22
2022-11-04T10:53:04.058Z,5.15
2022-11-04T10:55:37.222Z,3.78
2022-11-04T10:58:05.657Z,6.88
2022-11-04T11:00:36.479Z,4.72
2022-11-04T11:03:05.871Z,4.20
2022-11-04T11:05:34.445Z,3.97
2022-11-04T11:08:03.206Z,6.60
2022-11-04T11:10:32.595Z,9.98
2022-11-04T11:13:03.491Z,6.97
2022-11-04T11:15:34.986Z,6.82
2022-11-04T11:18:15.114Z,9.30
2022-11-04T11:20:44.373Z,7.78
2022-11-04T11:23:30.571Z,6.80
2022-11-04T11:25:59.171Z,7.38
2022-11-04T11:28:28.107Z,9.75
2022-11-04T11:30:58.367Z,5.45
2022-11-04T11:33:29.940Z,7.22
2022-11-04T11:36:00.610Z,7.85
2022-11-04T11:38:29.822Z,6.65
2022-11-04T11:41:23.908Z,6.05
2022-11-04T11:43:54.298Z,7.78
2022-11-04T11:46:24.219Z,7.15
2022-11-04T11:48:54.894Z,4.38
2022-11-04T11:51:31.799Z,6.60
2022-11-04T11:54:05.043Z,7.13
2022-11-04T11:56:59.167Z,5.70
2022-11-04T12:02:30.619Z,10.73
2022-11-04T12:10:51.027Z,6.75
2022-11-04T12:13:26.414Z,5.82
2022-11-04T12:16:06.102Z,10.13
2022-11-04T12:18:43.243Z,7.10
2022-11-04T12:21:16.025Z,6.85
2022-11-04T12:23:48.597Z,7.97
2022-11-04T12:26:22.118Z,9.48
2022-11-04T12:28:55.709Z,4.93
2022-11-04T12:31:29.103Z,6.18
2022-11-04T12:34:06.869Z,6.75
2022-11-04T12:36:44.266Z,5.47
2022-11-04T12:39:21.024Z,5.72
2022-11-04T12:42:19.999Z,7.57
2022-11-04T12:44:51.359Z,6.40
2022-11-04T12:47:25.816Z,6.13
2022-11-04T12:50:04.779Z,10.10
2022-11-04T12:52:42.557Z,10.10
2022-11-04T12:55:21.623Z,9.70
2022-11-04T12:57:53.391Z,9.48
2022-11-04T13:00:27.136Z,11.57
2022-11-04T13:02:59.602Z,10.40
2022-11-04T13:05:38.980Z,8.88
2022-11-04T13:08:14.443Z,8.85
2022-11-04T13:10:45.528Z,12.25
2022-11-04T13:13:17.100Z,10.13
2022-11-04T13:15:48.095Z,7.72
2022-11-04T13:18:19.020Z,5.68
2022-11-04T13:20:50.026Z,9.43
2022-11-04T13:23:22.135Z,9.80
2022-11-04T13:25:50.818Z,7.15
2022-11-04T13:28:22.130Z,8.52
2022-11-04T13:30:54.145Z,9.95
2022-11-04T13:33:26.433Z,6.13
2022-11-04T13:35:57.846Z,6.70
2022-11-04T13:38:30.391Z,7.07
2022-11-04T13:41:06.462Z,7.32
2022-11-04T13:43:41.169Z,9.02
2022-11-04T13:46:19.669Z,7.00
2022-11-04T13:48:56.623Z,6.82
2022-11-04T13:51:25.303Z,9.30
2022-11-04T13:53:56.684Z,7.40
2022-11-04T13:56:35.597Z,6.57
2022-11-04T13:59:18.897Z,8.88
2022-11-04T14:01:47.823Z,5.65
2022-11-04T14:04:30.603Z,7.57
2022-11-04T14:07:00.361Z,7.10
2022-11-04T14:09:50.164Z,6.22
2022-11-04T14:12:34.230Z,7.18
2022-11-04T14:15:13.493Z,5.57
2022-11-04T14:18:00.318Z,9.27
2022-11-04T14:20:31.308Z,4.43
2022-11-04T14:23:00.097Z,6.45
2022-11-04T14:25:30.314Z,6.70
2022-11-04T14:28:01.503Z,9.27
2022-11-04T14:30:44.874Z,5.30
2022-11-04T14:33:24.039Z,7.80
2022-11-04T14:35:53.289Z,6.68
2022-11-04T14:38:28.312Z,6.75
2022-11-04T14:41:11.530Z,6.20
2022-11-04T14:43:43.750Z,5.22
2022-11-04T14:46:14.108Z,5.60
2022-11-04T14:48:46.995Z,5.47
2022-11-04T14:51:23.448Z,6.18
2022-11-04T14:53:52.598Z,7.00
2022-11-04T14:56:24.485Z,5.45
2022-11-04T14:59:01.703Z,6.78
2022-11-04T15:01:35.027Z,8.15
2022-11-04T15:04:12.600Z,6.82
2022-11-04T15:06:54.380Z,5.57
2022-11-04T15:09:24.491Z,8.18
2022-11-04T15:12:11.143Z,10.50
2022-11-04T15:14:40.943Z,5.32
2022-11-04T15:17:09.289Z,7.85
2022-11-04T15:19:37.861Z,6.65
2022-11-04T15:22:07.059Z,9.98
2022-11-04T15:24:36.241Z,7.35
2022-11-04T15:27:06.005Z,6.82
2022-11-04T15:29:34.821Z,10.02
2022-11-04T15:32:06.550Z,7.60
2022-11-04T15:34:35.520Z,5.53
2022-11-04T15:37:05.632Z,7.38
2022-11-04T15:39:35.629Z,5.82
2022-11-04T15:42:23.426Z,8.20
2022-11-04T15:44:52.661Z,8.23
2022-11-04T15:47:26.999Z,8.05
2022-11-04T15:49:56.176Z,5.32
2022-11-04T15:52:26.552Z,10.43
2022-11-04T15:54:55.700Z,7.72
2022-11-04T15:57:25.821Z,11.48
2022-11-04T15:59:57.066Z,9.27
2022-11-04T16:02:29.947Z,10.07
2022-11-04T16:05:05.379Z,10.65
2022-11-04T16:07:36.844Z,10.35
2022-11-04T16:10:09.658Z,16.02
2022-11-04T16:12:38.541Z,12.75
2022-11-04T16:15:07.393Z,10.45
2022-11-04T16:17:45.039Z,9.30
2022-11-04T16:20:19.024Z,9.65
2022-11-04T16:22:47.652Z,11.73
2022-11-04T16:25:21.862Z,9.57
2022-11-04T16:27:50.394Z,10.90
2022-11-04T16:30:19.818Z,10.52
2022-11-04T16:32:50.248Z,9.57
2022-11-04T16:35:21.855Z,12.52
2022-11-04T16:37:50.789Z,12.23
2022-11-04T16:40:19.730Z,11.70
2022-11-04T16:42:49.354Z,14.18
2022-11-04T16:45:26.428Z,16.67
2022-11-04T16:47:57.182Z,12.73
2022-11-04T16:50:26.002Z,9.43
2022-11-04T16:52:54.812Z,13.63
2022-11-04T16:55:23.838Z,9.65
2022-11-04T16:57:53.036Z,13.73
2022-11-04T17:00:22.948Z,18.77
2022-11-04T17:02:52.605Z,13.05
2022-11-04T17:05:22.643Z,16.50
2022-11-04T17:07:54.484Z,13.20
2022-11-04T17:10:27.243Z,14.73
2022-11-04T17:12:55.842Z,15.38
2022-11-04T17:15:24.234Z,19.35
2022-11-04T17:17:52.649Z,13.05
2022-11-04T17:20:23.077Z,20.95
2022-11-04T17:22:52.897Z,19.98
2022-11-04T17:25:22.038Z,14.27
2022-11-04T17:27:50.427Z,23.15
2022-11-04T17:30:19.949Z,16.40
2022-11-04T17:32:48.269Z,15.88
2022-11-04T17:35:16.994Z,16.45
2022-11-04T17:37:46.795Z,19.52
2022-11-04T17:40:16.290Z,14.88
2022-11-04T17:43:05.589Z,12.38
2022-11-04T17:45:38.555Z,17.08
2022-11-04T17:48:07.441Z,14.25
2022-11-04T17:50:37.071Z,17.35
2022-11-04T17:53:06.966Z,19.25
2022-11-04T17:55:39.513Z,20.73
2022-11-04T17:58:07.864Z,19.27
2022-11-04T18:00:36.168Z,18.90
2022-11-04T18:03:06.721Z,19.38
2022-11-04T18:05:35.423Z,20.58
2022-11-04T18:08:04.007Z,19.67
2022-11-04T18:10:33.686Z,18.33
2022-11-04T18:13:01.060Z,23.25
2022-11-04T18:15:30.309Z,19.75
2022-11-04T18:17:58.779Z,21.92
2022-11-04T18:20:27.593Z,17.05
2022-11-04T18:22:55.914Z,20.25
2022-11-04T18:25:24.273Z,21.10
2022-11-04T18:27:53.983Z,20.13
2022-11-04T18:30:22.552Z,17.70
2022-11-04T18:32:51.040Z,22.67
2022-11-04T18:35:19.428Z,22.77
2022-11-04T18:37:47.817Z,20.63
2022-11-04T18:40:16.331Z,20.88
2022-11-04T18:42:44.685Z,19.50
2022-11-04T18:45:14.495Z,20.95
2022-11-04T18:47:42.836Z,19.35
2022-11-04T18:50:11.592Z,17.25
2022-11-04T18:52:40.431Z,17.60
2022-11-04T18:55:09.654Z,22.30
2022-11-04T18:57:37.970Z,22.05
2022-11-04T19:00:06.660Z,23.70
2022-11-04T19:02:36.888Z,20.35
2022-11-04T19:05:05.387Z,15.45
2022-11-04T19:07:33.686Z,18.08
2022-11-04T19:10:02.013Z,17.40
2022-11-04T19:12:47.810Z,19.33
2022-11-04T19:15:16.135Z,20.08
2022-11-04T19:17:45.914Z,24.55
2022-11-04T19:20:14.498Z,20.70
2022-11-04T19:22:42.828Z,20.70
2022-11-04T19:25:11.510Z,24.90
2022-11-04T19:27:39.868Z,17.95
2022-11-04T19:30:08.751Z,19.15
2022-11-04T19:32:37.202Z,23.85
2022-11-04T19:35:07.297Z,20.30
2022-11-04T19:37:35.704Z,21.42
2022-11-04T19:40:04.868Z,19.58
2022-11-04T19:42:51.022Z,21.17
2022-11-04T19:45:19.374Z,24.25
2022-11-04T19:47:47.724Z,21.48
2022-11-04T19:50:18.232Z,22.58
2022-11-04T19:52:46.560Z,22.67
2022-11-04T19:55:14.886Z,24.33
2022-11-04T19:57:43.208Z,23.98
2022-11-04T20:00:12.001Z,21.20
2022-11-04T20:02:40.395Z,27.65
2022-11-04T20:05:09.040Z,26.27
2022-11-04T20:07:39.417Z,25.15
2022-11-04T20:10:08.279Z,26.63
2022-11-04T20:12:54.691Z,24.30
2022-11-04T20:15:23.268Z,27.45
2022-11-04T20:17:51.831Z,26.48
2022-11-04T20:20:20.475Z,26.40
2022-11-04T20:22:50.702Z,23.88
2022-11-04T20:25:19.331Z,23.52
2022-11-04T20:27:47.841Z,19.20
2022-11-04T20:30:19.411Z,20.98
2022-11-04T20:32:47.964Z,20.40
2022-11-04T20:35:16.459Z,18.63
2022-11-04T20:37:45.070Z,19.27
2022-11-04T20:40:15.380Z,17.23
2022-11-04T20:42:47.896Z,17.65
2022-11-04T20:45:16.663Z,16.92
2022-11-04T20:47:44.955Z,14.10
2022-11-04T20:50:13.711Z,16.52
2022-11-04T20:52:42.040Z,14.35
2022-11-04T20:55:11.105Z,20.10
2022-11-04T20:57:40.922Z,12.95
2022-11-04T21:00:09.938Z,14.35
2022-11-04T21:02:40.496Z,14.45
2022-11-04T21:05:09.295Z,13.27
2022-11-04T21:07:38.453Z,12.40
2022-11-04T21:10:07.193Z,12.82
2022-11-04T21:12:35.583Z,10.48
2022-11-04T21:15:25.440Z,13.52
2022-11-04T21:17:53.858Z,14.25
2022-11-04T21:20:22.179Z,10.40
2022-11-04T21:22:50.506Z,10.82
2022-11-04T21:25:18.857Z,10.75
2022-11-04T21:27:47.165Z,8.93
2022-11-04T21:30:17.017Z,13.13
2022-11-04T21:32:45.350Z,11.45
2022-11-04T21:35:13.674Z,8.68
2022-11-04T21:37:41.980Z,10.88
2022-11-04T21:40:11.128Z,10.82
2022-11-04T21:42:39.423Z,9.27
2022-11-04T21:45:08.263Z,9.57
2022-11-04T21:47:37.919Z,10.30
2022-11-04T21:50:06.680Z,8.38
2022-11-04T21:52:35.243Z,10.32
2022-11-04T21:55:03.575Z,12.70
2022-11-04T21:57:31.896Z,9.48
2022-11-04T22:00:00.224Z,12.73
2022-11-04T22:02:28.738Z,9.73
2022-11-04T22:04:58.515Z,8.48
2022-11-04T22:07:40.695Z,10.63
2022-11-04T22:10:09.582Z,10.70
2022-11-04T22:12:37.915Z,11.35
2022-11-04T22:15:06.416Z,9.93
2022-11-04T22:17:34.901Z,8.88
2022-11-04T22:20:04.749Z,8.82
2022-11-04T22:22:33.524Z,12.65
2022-11-04T22:25:04.291Z,12.90
2022-11-04T22:27:32.919Z,7.85
2022-11-04T22:30:01.248Z,9.75
2022-11-04T22:32:29.654Z,11.00
2022-11-04T22:34:57.982Z,12.38
2022-11-04T22:37:27.692Z,11.55
2022-11-04T22:39:56.019Z,7.38
2022-11-04T22:42:24.327Z,9.43
2022-11-04T22:44:52.721Z,8.30
2022-11-04T22:47:21.022Z,10.00
2022-11-04T22:49:49.410Z,12.98
2022-11-04T22:52:17.810Z,9.93
2022-11-04T22:54:47.511Z,8.20
2022-11-04T22:57:15.830Z,10.80
2022-11-04T22:59:44.202Z,9.63
2022-11-04T23:02:12.597Z,10.15
2022-11-04T23:04:41.701Z,10.80
2022-11-04T23:07:10.266Z,9.50
2022-11-04T23:09:59.095Z,7.93
2022-11-04T23:12:46.690Z,10.77
2022-11-04T23:15:32.897Z,10.63
2022-11-04T23:18:18.916Z,9.43
2022-11-04T23:21:07.905Z,9.50
2022-11-04T23:23:54.015Z,9.13
2022-11-04T23:26:26.544Z,8.10
2022-11-04T23:29:15.032Z,10.98
2022-11-04T23:31:44.753Z,9.57
2022-11-04T23:34:30.557Z,13.38
2022-11-04T23:37:14.227Z,11.70
2022-11-04T23:39:43.404Z,11.10
2022-11-04T23:42:18.254Z,12.88
2022-11-04T23:45:06.706Z,12.30
2022-11-04T23:47:53.260Z,11.77
2022-11-04T23:50:39.501Z,10.25
2022-11-04T23:53:25.831Z,10.43
2022-11-04T23:56:12.353Z,12.88
2022-11-04T23:58:58.474Z,11.93
